sensor_id;sensor_type;location;lat;lon;timestamp;temperature;humidity
12384;DHT22;6256;63.808;20.336;2024-03-08T00:01:10;-5.70;99.90
12384;DHT22;6256;63.808;20.336;2024-03-08T00:03:36;-5.70;99.90
12384;DHT22;6256;63.808;20.336;2024-03-08T00:06:03;-5.80;99.90
12384;DHT22;6256;63.808;20.336;2024-03-08T00:08:30;-5.80;99.90
12384;DHT22;6256;63.808;20.336;2024-03-08T00:10:56;-5.80;99.90
12384;DHT22;6256;63.808;20.336;2024-03-08T00:13:25;-5.80;99.90
12384;DHT22;6256;63.808;20.336;2024-03-08T00:15:51;-5.70;99.90
12384;DHT22;6256;63.808;20.336;2024-03-08T00:18:16;-5.70;99.90
12384;DHT22;6256;63.808;20.336;2024-03-08T00:20:43;-5.60;99.90
12384;DHT22;6256;63.808;20.336;2024-03-08T00:23:10;-5.60;99.90
12384;DHT22;6256;63.808;20.336;2024-03-08T00:25:36;-5.70;99.90
12384;DHT22;6256;63.808;20.336;2024-03-08T00:28:02;-5.70;99.90
12384;DHT22;6256;63.808;20.336;2024-03-08T00:30:31;-5.70;99.90
12384;DHT22;6256;63.808;20.336;2024-03-08T00:32:57;-5.80;99.90
12384;DHT22;6256;63.808;20.336;2024-03-08T00:35:23;-5.80;99.90
12384;DHT22;6256;63.808;20.336;2024-03-08T00:37:49;-5.80;99.90
12384;DHT22;6256;63.808;20.336;2024-03-08T00:40:15;-5.90;99.90
12384;DHT22;6256;63.808;20.336;2024-03-08T00:42:40;-5.90;99.90
12384;DHT22;6256;63.808;20.336;2024-03-08T00:45:09;-6.00;99.90
12384;DHT22;6256;63.808;20.336;2024-03-08T00:47:35;-6.00;99.90
12384;DHT22;6256;63.808;20.336;2024-03-08T00:50:01;-6.10;99.90
12384;DHT22;6256;63.808;20.336;2024-03-08T00:54:55;-6.10;99.90
12384;DHT22;6256;63.808;20.336;2024-03-08T00:57:21;-6.10;99.90
12384;DHT22;6256;63.808;20.336;2024-03-08T00:59:47;-6.10;99.90
12384;DHT22;6256;63.808;20.336;2024-03-08T01:02:14;-6.20;99.90
12384;DHT22;6256;63.808;20.336;2024-03-08T01:04:39;-6.20;99.90
12384;DHT22;6256;63.808;20.336;2024-03-08T01:07:05;-6.20;99.90
12384;DHT22;6256;63.808;20.336;2024-03-08T01:09:31;-6.30;99.90
12384;DHT22;6256;63.808;20.336;2024-03-08T01:11:57;-6.30;99.90
12384;DHT22;6256;63.808;20.336;2024-03-08T01:14:23;-6.30;99.90
12384;DHT22;6256;63.808;20.336;2024-03-08T01:16:51;-6.30;99.90
12384;DHT22;6256;63.808;20.336;2024-03-08T01:19:17;-6.30;99.90
12384;DHT22;6256;63.808;20.336;2024-03-08T01:21:43;-6.30;99.90
12384;DHT22;6256;63.808;20.336;2024-03-08T01:24:09;-6.30;99.90
12384;DHT22;6256;63.808;20.336;2024-03-08T01:26:34;-6.40;99.90
12384;DHT22;6256;63.808;20.336;2024-03-08T01:29:01;-6.40;99.90
12384;DHT22;6256;63.808;20.336;2024-03-08T01:31:29;-6.40;99.90
12384;DHT22;6256;63.808;20.336;2024-03-08T01:33:56;-6.50;99.90
12384;DHT22;6256;63.808;20.336;2024-03-08T01:36:21;-6.50;99.90
12384;DHT22;6256;63.808;20.336;2024-03-08T01:38:47;-6.50;99.90
12384;DHT22;6256;63.808;20.336;2024-03-08T01:41:13;-6.50;99.90
12384;DHT22;6256;63.808;20.336;2024-03-08T01:43:39;-6.50;99.90
12384;DHT22;6256;63.808;20.336;2024-03-08T01:46:06;-6.60;99.90
12384;DHT22;6256;63.808;20.336;2024-03-08T01:48:34;-6.60;99.90
12384;DHT22;6256;63.808;20.336;2024-03-08T01:51:00;-6.60;99.90
12384;DHT22;6256;63.808;20.336;2024-03-08T01:53:27;-6.60;99.90
12384;DHT22;6256;63.808;20.336;2024-03-08T01:55:57;-6.70;99.90
12384;DHT22;6256;63.808;20.336;2024-03-08T01:58:24;-6.70;99.90
12384;DHT22;6256;63.808;20.336;2024-03-08T02:00:50;-6.70;99.90
12384;DHT22;6256;63.808;20.336;2024-03-08T02:03:17;-6.70;99.90
12384;DHT22;6256;63.808;20.336;2024-03-08T02:05:43;-6.70;99.90
12384;DHT22;6256;63.808;20.336;2024-03-08T02:08:09;-6.80;99.90
12384;DHT22;6256;63.808;20.336;2024-03-08T02:10:49;-6.80;99.90
12384;DHT22;6256;63.808;20.336;2024-03-08T02:13:15;-6.80;99.90
12384;DHT22;6256;63.808;20.336;2024-03-08T02:15:57;-6.80;99.90
12384;DHT22;6256;63.808;20.336;2024-03-08T02:18:27;-6.80;99.90
12384;DHT22;6256;63.808;20.336;2024-03-08T02:21:01;-6.80;99.90
12384;DHT22;6256;63.808;20.336;2024-03-08T02:23:28;-6.90;99.90
12384;DHT22;6256;63.808;20.336;2024-03-08T02:25:55;-6.90;99.90
12384;DHT22;6256;63.808;20.336;2024-03-08T02:28:22;-6.90;99.90
12384;DHT22;6256;63.808;20.336;2024-03-08T02:30:48;-6.90;99.90
12384;DHT22;6256;63.808;20.336;2024-03-08T02:33:15;-6.90;99.90
12384;DHT22;6256;63.808;20.336;2024-03-08T02:35:44;-6.90;99.90
12384;DHT22;6256;63.808;20.336;2024-03-08T02:38:13;-6.90;99.90
12384;DHT22;6256;63.808;20.336;2024-03-08T02:40:46;-7.00;99.90
12384;DHT22;6256;63.808;20.336;2024-03-08T02:43:13;-7.00;99.90
12384;DHT22;6256;63.808;20.336;2024-03-08T02:45:40;-7.00;99.90
12384;DHT22;6256;63.808;20.336;2024-03-08T02:48:07;-7.00;99.90
12384;DHT22;6256;63.808;20.336;2024-03-08T02:50:34;-7.00;99.90
12384;DHT22;6256;63.808;20.336;2024-03-08T02:53:03;-7.00;99.90
12384;DHT22;6256;63.808;20.336;2024-03-08T02:55:29;-7.00;99.90
12384;DHT22;6256;63.808;20.336;2024-03-08T02:57:56;-7.00;99.90
12384;DHT22;6256;63.808;20.336;2024-03-08T03:00:22;-7.10;99.90
12384;DHT22;6256;63.808;20.336;2024-03-08T03:02:51;-7.10;99.90
12384;DHT22;6256;63.808;20.336;2024-03-08T03:05:22;-7.10;99.90
12384;DHT22;6256;63.808;20.336;2024-03-08T03:07:48;-7.10;99.90
12384;DHT22;6256;63.808;20.336;2024-03-08T03:10:15;-7.10;99.90
12384;DHT22;6256;63.808;20.336;2024-03-08T03:12:45;-7.00;99.90
12384;DHT22;6256;63.808;20.336;2024-03-08T03:15:12;-6.90;99.90
12384;DHT22;6256;63.808;20.336;2024-03-08T03:17:41;-6.90;99.90
12384;DHT22;6256;63.808;20.336;2024-03-08T03:20:07;-6.90;99.90
12384;DHT22;6256;63.808;20.336;2024-03-08T03:22:39;-6.80;99.90
12384;DHT22;6256;63.808;20.336;2024-03-08T03:25:07;-6.70;99.90
12384;DHT22;6256;63.808;20.336;2024-03-08T03:27:33;-6.60;99.90
12384;DHT22;6256;63.808;20.336;2024-03-08T03:29:58;-6.60;99.90
12384;DHT22;6256;63.808;20.336;2024-03-08T03:32:44;-6.50;99.90
12384;DHT22;6256;63.808;20.336;2024-03-08T03:35:13;-6.40;99.90
12384;DHT22;6256;63.808;20.336;2024-03-08T03:37:40;-6.40;99.90
12384;DHT22;6256;63.808;20.336;2024-03-08T03:40:08;-6.30;99.90
12384;DHT22;6256;63.808;20.336;2024-03-08T03:42:34;-6.30;99.90
12384;DHT22;6256;63.808;20.336;2024-03-08T03:45:00;-6.20;99.90
12384;DHT22;6256;63.808;20.336;2024-03-08T03:47:25;-6.10;99.90
12384;DHT22;6256;63.808;20.336;2024-03-08T03:49:52;-6.10;99.90
12384;DHT22;6256;63.808;20.336;2024-03-08T03:52:19;-6.00;99.90
12384;DHT22;6256;63.808;20.336;2024-03-08T03:54:45;-6.00;99.90
12384;DHT22;6256;63.808;20.336;2024-03-08T03:57:11;-5.90;99.90
12384;DHT22;6256;63.808;20.336;2024-03-08T03:59:37;-5.80;99.90
12384;DHT22;6256;63.808;20.336;2024-03-08T04:02:03;-5.80;99.90
12384;DHT22;6256;63.808;20.336;2024-03-08T04:04:29;-5.70;99.90
12384;DHT22;6256;63.808;20.336;2024-03-08T04:06:55;-5.60;99.90
12384;DHT22;6256;63.808;20.336;2024-03-08T04:09:20;-5.60;99.90
12384;DHT22;6256;63.808;20.336;2024-03-08T04:11:48;-5.60;99.90
12384;DHT22;6256;63.808;20.336;2024-03-08T04:14:14;-5.50;99.90
12384;DHT22;6256;63.808;20.336;2024-03-08T04:16:40;-5.40;99.90
12384;DHT22;6256;63.808;20.336;2024-03-08T04:19:05;-5.40;99.90
12384;DHT22;6256;63.808;20.336;2024-03-08T04:21:31;-5.30;99.90
12384;DHT22;6256;63.808;20.336;2024-03-08T04:23:57;-5.20;99.90
12384;DHT22;6256;63.808;20.336;2024-03-08T04:26:22;-5.20;99.90
12384;DHT22;6256;63.808;20.336;2024-03-08T04:28:48;-5.10;99.90
12384;DHT22;6256;63.808;20.336;2024-03-08T04:31:14;-5.10;99.90
12384;DHT22;6256;63.808;20.336;2024-03-08T04:33:41;-5.10;99.90
12384;DHT22;6256;63.808;20.336;2024-03-08T04:36:07;-5.00;99.90
12384;DHT22;6256;63.808;20.336;2024-03-08T04:38:33;-4.90;99.90
12384;DHT22;6256;63.808;20.336;2024-03-08T04:40:59;-4.90;99.90
12384;DHT22;6256;63.808;20.336;2024-03-08T04:43:28;-4.80;99.90
12384;DHT22;6256;63.808;20.336;2024-03-08T04:45:55;-4.80;99.90
12384;DHT22;6256;63.808;20.336;2024-03-08T04:48:21;-4.70;99.90
12384;DHT22;6256;63.808;20.336;2024-03-08T04:50:47;-4.60;99.90
12384;DHT22;6256;63.808;20.336;2024-03-08T04:53:12;-4.60;99.90
12384;DHT22;6256;63.808;20.336;2024-03-08T04:55:39;-4.50;99.90
12384;DHT22;6256;63.808;20.336;2024-03-08T04:58:04;-4.40;99.90
12384;DHT22;6256;63.808;20.336;2024-03-08T05:00:33;-4.40;99.90
12384;DHT22;6256;63.808;20.336;2024-03-08T05:02:59;-4.30;99.90
12384;DHT22;6256;63.808;20.336;2024-03-08T05:05:25;-4.30;99.90
12384;DHT22;6256;63.808;20.336;2024-03-08T05:07:53;-4.20;99.90
12384;DHT22;6256;63.808;20.336;2024-03-08T05:10:19;-4.10;99.90
12384;DHT22;6256;63.808;20.336;2024-03-08T05:12:45;-4.00;99.90
12384;DHT22;6256;63.808;20.336;2024-03-08T05:15:10;-4.00;99.90
12384;DHT22;6256;63.808;20.336;2024-03-08T05:17:36;-3.90;99.90
12384;DHT22;6256;63.808;20.336;2024-03-08T05:20:02;-3.80;99.90
12384;DHT22;6256;63.808;20.336;2024-03-08T05:22:29;-3.80;99.90
12384;DHT22;6256;63.808;20.336;2024-03-08T05:24:55;-3.70;99.90
12384;DHT22;6256;63.808;20.336;2024-03-08T05:27:21;-3.60;99.90
12384;DHT22;6256;63.808;20.336;2024-03-08T05:29:46;-3.50;99.90
12384;DHT22;6256;63.808;20.336;2024-03-08T05:32:12;-3.40;99.90
12384;DHT22;6256;63.808;20.336;2024-03-08T05:34:38;-3.40;99.90
12384;DHT22;6256;63.808;20.336;2024-03-08T05:37:04;-3.30;99.90
12384;DHT22;6256;63.808;20.336;2024-03-08T05:39:29;-3.20;99.90
12384;DHT22;6256;63.808;20.336;2024-03-08T05:41:55;-3.10;99.90
12384;DHT22;6256;63.808;20.336;2024-03-08T05:44:21;-3.10;99.90
12384;DHT22;6256;63.808;20.336;2024-03-08T05:46:47;-3.00;99.90
12384;DHT22;6256;63.808;20.336;2024-03-08T05:49:13;-2.90;99.90
12384;DHT22;6256;63.808;20.336;2024-03-08T05:51:40;-2.80;99.90
12384;DHT22;6256;63.808;20.336;2024-03-08T05:54:07;-2.80;99.90
12384;DHT22;6256;63.808;20.336;2024-03-08T05:59:01;-2.70;99.90
12384;DHT22;6256;63.808;20.336;2024-03-08T06:01:28;-2.50;99.90
12384;DHT22;6256;63.808;20.336;2024-03-08T06:03:54;-2.50;99.90
12384;DHT22;6256;63.808;20.336;2024-03-08T06:06:24;-2.50;99.90
12384;DHT22;6256;63.808;20.336;2024-03-08T06:08:51;-2.40;99.90
12384;DHT22;6256;63.808;20.336;2024-03-08T06:11:18;-2.30;99.90
12384;DHT22;6256;63.808;20.336;2024-03-08T06:13:44;-2.30;99.90
12384;DHT22;6256;63.808;20.336;2024-03-08T06:16:10;-2.20;99.90
12384;DHT22;6256;63.808;20.336;2024-03-08T06:18:39;-2.20;99.90
12384;DHT22;6256;63.808;20.336;2024-03-08T06:21:07;-2.10;99.90
12384;DHT22;6256;63.808;20.336;2024-03-08T06:23:34;-2.10;99.90
12384;DHT22;6256;63.808;20.336;2024-03-08T06:26:04;-2.00;99.90
12384;DHT22;6256;63.808;20.336;2024-03-08T06:28:30;-1.80;99.90
12384;DHT22;6256;63.808;20.336;2024-03-08T06:30:58;-1.90;99.90
12384;DHT22;6256;63.808;20.336;2024-03-08T06:33:24;-1.80;99.90
12384;DHT22;6256;63.808;20.336;2024-03-08T06:35:54;-1.70;99.90
12384;DHT22;6256;63.808;20.336;2024-03-08T06:38:23;-1.70;99.90
12384;DHT22;6256;63.808;20.336;2024-03-08T06:40:49;-1.60;99.90
12384;DHT22;6256;63.808;20.336;2024-03-08T06:43:15;-1.60;99.90
12384;DHT22;6256;63.808;20.336;2024-03-08T06:45:50;-1.50;99.90
12384;DHT22;6256;63.808;20.336;2024-03-08T06:48:19;-1.50;99.90
12384;DHT22;6256;63.808;20.336;2024-03-08T06:50:46;-1.40;99.90
12384;DHT22;6256;63.808;20.336;2024-03-08T06:53:12;-1.30;99.90
12384;DHT22;6256;63.808;20.336;2024-03-08T06:55:39;-1.30;99.90
12384;DHT22;6256;63.808;20.336;2024-03-08T06:58:05;-1.20;99.90
12384;DHT22;6256;63.808;20.336;2024-03-08T07:00:32;-1.20;99.90
12384;DHT22;6256;63.808;20.336;2024-03-08T07:02:58;-1.10;99.90
12384;DHT22;6256;63.808;20.336;2024-03-08T07:05:28;-1.10;99.90
12384;DHT22;6256;63.808;20.336;2024-03-08T07:07:54;-1.00;99.90
12384;DHT22;6256;63.808;20.336;2024-03-08T07:10:21;-0.90;99.90
12384;DHT22;6256;63.808;20.336;2024-03-08T07:12:50;-0.90;99.90
12384;DHT22;6256;63.808;20.336;2024-03-08T07:15:15;-0.80;99.90
12384;DHT22;6256;63.808;20.336;2024-03-08T07:17:41;-0.80;99.90
12384;DHT22;6256;63.808;20.336;2024-03-08T07:20:10;-0.80;99.90
12384;DHT22;6256;63.808;20.336;2024-03-08T07:25:08;-0.60;99.90
12384;DHT22;6256;63.808;20.336;2024-03-08T07:27:50;-0.50;99.90
12384;DHT22;6256;63.808;20.336;2024-03-08T07:30:23;-0.40;99.90
12384;DHT22;6256;63.808;20.336;2024-03-08T07:38:07;-0.20;99.90
12384;DHT22;6256;63.808;20.336;2024-03-08T07:40:40;-0.20;99.90
12384;DHT22;6256;63.808;20.336;2024-03-08T07:43:10;-0.10;99.90
12384;DHT22;6256;63.808;20.336;2024-03-08T07:45:36;-0.10;99.90
12384;DHT22;6256;63.808;20.336;2024-03-08T07:48:03;-0.10;99.90
12384;DHT22;6256;63.808;20.336;2024-03-08T07:50:29;0.00;99.90
12384;DHT22;6256;63.808;20.336;2024-03-08T07:52:55;0.00;99.90
12384;DHT22;6256;63.808;20.336;2024-03-08T07:55:20;0.00;99.90
12384;DHT22;6256;63.808;20.336;2024-03-08T07:57:49;0.10;99.90
12384;DHT22;6256;63.808;20.336;2024-03-08T08:02:44;0.20;99.90
12384;DHT22;6256;63.808;20.336;2024-03-08T08:07:37;0.30;99.90
12384;DHT22;6256;63.808;20.336;2024-03-08T08:10:03;0.40;99.90
12384;DHT22;6256;63.808;20.336;2024-03-08T08:12:31;0.50;99.90
12384;DHT22;6256;63.808;20.336;2024-03-08T08:14:59;0.60;99.90
12384;DHT22;6256;63.808;20.336;2024-03-08T08:17:25;0.60;99.90
12384;DHT22;6256;63.808;20.336;2024-03-08T08:22:17;0.80;99.90
12384;DHT22;6256;63.808;20.336;2024-03-08T08:24:43;0.80;99.90
12384;DHT22;6256;63.808;20.336;2024-03-08T08:27:09;0.90;99.90
12384;DHT22;6256;63.808;20.336;2024-03-08T08:29:37;1.00;99.90
12384;DHT22;6256;63.808;20.336;2024-03-08T08:32:03;1.10;99.90
12384;DHT22;6256;63.808;20.336;2024-03-08T08:34:29;1.20;99.90
12384;DHT22;6256;63.808;20.336;2024-03-08T08:36:56;1.20;99.90
12384;DHT22;6256;63.808;20.336;2024-03-08T08:39:22;1.20;99.90
12384;DHT22;6256;63.808;20.336;2024-03-08T08:41:48;1.30;99.90
12384;DHT22;6256;63.808;20.336;2024-03-08T08:44:14;1.40;99.90
12384;DHT22;6256;63.808;20.336;2024-03-08T08:46:40;1.50;99.90
12384;DHT22;6256;63.808;20.336;2024-03-08T08:49:06;1.50;99.90
12384;DHT22;6256;63.808;20.336;2024-03-08T08:51:35;1.60;99.90
12384;DHT22;6256;63.808;20.336;2024-03-08T08:54:02;1.60;99.90
12384;DHT22;6256;63.808;20.336;2024-03-08T08:56:27;1.50;99.90
12384;DHT22;6256;63.808;20.336;2024-03-08T08:58:54;1.60;99.90
12384;DHT22;6256;63.808;20.336;2024-03-08T09:01:20;1.60;99.90
12384;DHT22;6256;63.808;20.336;2024-03-08T09:03:46;1.90;99.90
12384;DHT22;6256;63.808;20.336;2024-03-08T09:06:16;1.90;99.90
12384;DHT22;6256;63.808;20.336;2024-03-08T09:08:42;1.90;99.90
12384;DHT22;6256;63.808;20.336;2024-03-08T09:11:09;1.90;99.90
12384;DHT22;6256;63.808;20.336;2024-03-08T09:13:36;2.00;99.90
12384;DHT22;6256;63.808;20.336;2024-03-08T09:16:04;2.10;99.90
12384;DHT22;6256;63.808;20.336;2024-03-08T09:20:58;2.30;99.90
12384;DHT22;6256;63.808;20.336;2024-03-08T09:23:25;2.30;99.90
12384;DHT22;6256;63.808;20.336;2024-03-08T09:25:58;2.20;99.90
12384;DHT22;6256;63.808;20.336;2024-03-08T09:28:24;2.40;99.90
12384;DHT22;6256;63.808;20.336;2024-03-08T09:30:50;2.50;99.90
12384;DHT22;6256;63.808;20.336;2024-03-08T09:33:16;2.50;99.90
12384;DHT22;6256;63.808;20.336;2024-03-08T09:35:45;2.60;99.90
12384;DHT22;6256;63.808;20.336;2024-03-08T09:38:14;2.70;99.90
12384;DHT22;6256;63.808;20.336;2024-03-08T09:40:43;2.70;99.90
12384;DHT22;6256;63.808;20.336;2024-03-08T09:43:12;2.70;99.90
12384;DHT22;6256;63.808;20.336;2024-03-08T09:45:40;2.80;99.90
12384;DHT22;6256;63.808;20.336;2024-03-08T09:48:10;2.80;99.90
12384;DHT22;6256;63.808;20.336;2024-03-08T09:50:42;2.80;99.90
12384;DHT22;6256;63.808;20.336;2024-03-08T09:53:08;2.90;99.90
12384;DHT22;6256;63.808;20.336;2024-03-08T09:55:40;2.90;99.90
12384;DHT22;6256;63.808;20.336;2024-03-08T09:58:11;2.90;99.90
12384;DHT22;6256;63.808;20.336;2024-03-08T10:00:56;2.90;99.90
12384;DHT22;6256;63.808;20.336;2024-03-08T10:03:27;3.00;99.90
12384;DHT22;6256;63.808;20.336;2024-03-08T10:05:53;3.00;99.90
12384;DHT22;6256;63.808;20.336;2024-03-08T10:08:29;3.00;99.90
12384;DHT22;6256;63.808;20.336;2024-03-08T10:10:55;3.00;99.90
12384;DHT22;6256;63.808;20.336;2024-03-08T10:13:27;3.00;99.90
12384;DHT22;6256;63.808;20.336;2024-03-08T10:15:53;3.10;99.90
12384;DHT22;6256;63.808;20.336;2024-03-08T10:18:19;3.20;99.90
12384;DHT22;6256;63.808;20.336;2024-03-08T10:20:45;3.20;99.90
12384;DHT22;6256;63.808;20.336;2024-03-08T10:23:11;3.30;99.90
12384;DHT22;6256;63.808;20.336;2024-03-08T10:25:37;3.30;99.90
12384;DHT22;6256;63.808;20.336;2024-03-08T10:28:06;3.40;99.90
12384;DHT22;6256;63.808;20.336;2024-03-08T10:30:32;3.50;99.90
12384;DHT22;6256;63.808;20.336;2024-03-08T10:32:58;3.50;99.90
12384;DHT22;6256;63.808;20.336;2024-03-08T10:35:24;3.50;99.90
12384;DHT22;6256;63.808;20.336;2024-03-08T10:37:51;3.60;99.90
12384;DHT22;6256;63.808;20.336;2024-03-08T10:40:29;3.60;99.90
12384;DHT22;6256;63.808;20.336;2024-03-08T10:42:57;3.60;99.90
12384;DHT22;6256;63.808;20.336;2024-03-08T10:45:36;3.60;99.90
12384;DHT22;6256;63.808;20.336;2024-03-08T10:50:49;3.50;99.90
12384;DHT22;6256;63.808;20.336;2024-03-08T10:53:18;3.60;99.90
12384;DHT22;6256;63.808;20.336;2024-03-08T10:55:46;3.60;99.90
12384;DHT22;6256;63.808;20.336;2024-03-08T10:58:12;3.60;99.90
12384;DHT22;6256;63.808;20.336;2024-03-08T11:00:38;3.60;99.90
12384;DHT22;6256;63.808;20.336;2024-03-08T11:03:04;3.70;99.90
12384;DHT22;6256;63.808;20.336;2024-03-08T11:05:40;3.70;99.90
12384;DHT22;6256;63.808;20.336;2024-03-08T11:08:16;3.70;99.90
12384;DHT22;6256;63.808;20.336;2024-03-08T11:11:02;3.90;99.90
12384;DHT22;6256;63.808;20.336;2024-03-08T11:13:37;3.90;99.90
12384;DHT22;6256;63.808;20.336;2024-03-08T11:16:10;3.70;99.90
12384;DHT22;6256;63.808;20.336;2024-03-08T11:18:36;3.70;99.90
12384;DHT22;6256;63.808;20.336;2024-03-08T11:21:08;3.80;99.90
12384;DHT22;6256;63.808;20.336;2024-03-08T11:23:38;3.70;99.90
12384;DHT22;6256;63.808;20.336;2024-03-08T11:26:21;3.60;99.90
12384;DHT22;6256;63.808;20.336;2024-03-08T11:28:49;3.70;99.90
12384;DHT22;6256;63.808;20.336;2024-03-08T11:31:24;3.70;99.90
12384;DHT22;6256;63.808;20.336;2024-03-08T11:33:53;3.60;99.90
12384;DHT22;6256;63.808;20.336;2024-03-08T11:36:24;3.60;99.90
12384;DHT22;6256;63.808;20.336;2024-03-08T11:38:51;3.60;99.90
12384;DHT22;6256;63.808;20.336;2024-03-08T11:41:23;3.60;99.90
12384;DHT22;6256;63.808;20.336;2024-03-08T11:43:49;3.60;99.90
12384;DHT22;6256;63.808;20.336;2024-03-08T11:46:16;3.60;99.90
12384;DHT22;6256;63.808;20.336;2024-03-08T11:48:44;3.60;99.90
12384;DHT22;6256;63.808;20.336;2024-03-08T11:51:14;3.60;99.90
12384;DHT22;6256;63.808;20.336;2024-03-08T11:53:41;3.60;99.90
12384;DHT22;6256;63.808;20.336;2024-03-08T11:56:11;3.60;99.90
12384;DHT22;6256;63.808;20.336;2024-03-08T11:58:38;3.50;99.90
12384;DHT22;6256;63.808;20.336;2024-03-08T12:01:10;3.50;99.90
12384;DHT22;6256;63.808;20.336;2024-03-08T12:03:41;3.50;99.90
12384;DHT22;6256;63.808;20.336;2024-03-08T12:06:11;3.50;99.90
12384;DHT22;6256;63.808;20.336;2024-03-08T12:08:39;3.50;99.90
12384;DHT22;6256;63.808;20.336;2024-03-08T12:11:05;3.50;99.90
12384;DHT22;6256;63.808;20.336;2024-03-08T12:13:32;3.50;99.90
12384;DHT22;6256;63.808;20.336;2024-03-08T12:16:00;3.50;99.90
12384;DHT22;6256;63.808;20.336;2024-03-08T12:18:26;3.50;99.90
12384;DHT22;6256;63.808;20.336;2024-03-08T12:21:04;3.40;99.90
12384;DHT22;6256;63.808;20.336;2024-03-08T12:23:33;3.50;99.90
12384;DHT22;6256;63.808;20.336;2024-03-08T12:26:12;3.50;99.90
12384;DHT22;6256;63.808;20.336;2024-03-08T12:28:39;3.50;99.90
12384;DHT22;6256;63.808;20.336;2024-03-08T12:31:07;3.50;99.90
12384;DHT22;6256;63.808;20.336;2024-03-08T12:33:52;3.50;99.90
12384;DHT22;6256;63.808;20.336;2024-03-08T12:36:19;3.50;99.90
12384;DHT22;6256;63.808;20.336;2024-03-08T12:38:48;3.50;99.90
12384;DHT22;6256;63.808;20.336;2024-03-08T12:41:15;3.40;99.90
12384;DHT22;6256;63.808;20.336;2024-03-08T12:43:42;3.30;99.90
12384;DHT22;6256;63.808;20.336;2024-03-08T12:46:13;3.20;99.90
12384;DHT22;6256;63.808;20.336;2024-03-08T12:48:38;3.30;99.90
12384;DHT22;6256;63.808;20.336;2024-03-08T12:51:09;3.30;99.90
12384;DHT22;6256;63.808;20.336;2024-03-08T12:53:35;3.20;99.90
12384;DHT22;6256;63.808;20.336;2024-03-08T12:56:01;3.30;99.90
12384;DHT22;6256;63.808;20.336;2024-03-08T12:58:29;3.20;99.90
12384;DHT22;6256;63.808;20.336;2024-03-08T13:00:55;3.20;99.90
12384;DHT22;6256;63.808;20.336;2024-03-08T13:03:20;3.10;99.90
12384;DHT22;6256;63.808;20.336;2024-03-08T13:05:48;3.10;99.90
12384;DHT22;6256;63.808;20.336;2024-03-08T13:08:15;3.20;99.90
12384;DHT22;6256;63.808;20.336;2024-03-08T13:10:41;3.20;99.90
12384;DHT22;6256;63.808;20.336;2024-03-08T13:13:11;3.20;99.90
12384;DHT22;6256;63.808;20.336;2024-03-08T13:15:40;3.10;99.90
12384;DHT22;6256;63.808;20.336;2024-03-08T13:18:06;3.00;99.90
12384;DHT22;6256;63.808;20.336;2024-03-08T13:20:34;3.10;99.90
12384;DHT22;6256;63.808;20.336;2024-03-08T13:23:03;3.10;99.90
12384;DHT22;6256;63.808;20.336;2024-03-08T13:25:30;3.10;99.90
12384;DHT22;6256;63.808;20.336;2024-03-08T13:27:56;3.20;99.90
12384;DHT22;6256;63.808;20.336;2024-03-08T13:30:24;3.20;99.90
12384;DHT22;6256;63.808;20.336;2024-03-08T13:32:52;3.20;99.90
12384;DHT22;6256;63.808;20.336;2024-03-08T13:35:19;3.10;99.90
12384;DHT22;6256;63.808;20.336;2024-03-08T13:37:51;3.10;99.90
12384;DHT22;6256;63.808;20.336;2024-03-08T13:40:17;3.10;99.90
12384;DHT22;6256;63.808;20.336;2024-03-08T13:42:49;3.10;99.90
12384;DHT22;6256;63.808;20.336;2024-03-08T13:45:15;3.10;99.90
12384;DHT22;6256;63.808;20.336;2024-03-08T13:47:48;3.20;99.90
12384;DHT22;6256;63.808;20.336;2024-03-08T13:50:15;3.10;99.90
12384;DHT22;6256;63.808;20.336;2024-03-08T13:52:47;3.00;99.90
12384;DHT22;6256;63.808;20.336;2024-03-08T13:55:15;2.90;99.90
12384;DHT22;6256;63.808;20.336;2024-03-08T13:57:40;2.90;99.90
12384;DHT22;6256;63.808;20.336;2024-03-08T14:00:08;2.80;99.90
12384;DHT22;6256;63.808;20.336;2024-03-08T14:02:33;2.90;99.90
12384;DHT22;6256;63.808;20.336;2024-03-08T14:04:59;2.80;99.90
12384;DHT22;6256;63.808;20.336;2024-03-08T14:07:27;2.80;99.90
12384;DHT22;6256;63.808;20.336;2024-03-08T14:09:54;2.80;99.90
12384;DHT22;6256;63.808;20.336;2024-03-08T14:12:20;2.70;99.90
12384;DHT22;6256;63.808;20.336;2024-03-08T14:14:46;2.80;99.90
12384;DHT22;6256;63.808;20.336;2024-03-08T14:17:11;2.90;99.90
12384;DHT22;6256;63.808;20.336;2024-03-08T14:19:42;2.80;99.90
12384;DHT22;6256;63.808;20.336;2024-03-08T14:22:08;2.80;99.90
12384;DHT22;6256;63.808;20.336;2024-03-08T14:24:36;2.90;99.90
12384;DHT22;6256;63.808;20.336;2024-03-08T14:27:02;2.90;99.90
12384;DHT22;6256;63.808;20.336;2024-03-08T14:29:29;2.90;99.90
12384;DHT22;6256;63.808;20.336;2024-03-08T14:31:58;2.80;99.90
12384;DHT22;6256;63.808;20.336;2024-03-08T14:34:27;2.80;99.90
12384;DHT22;6256;63.808;20.336;2024-03-08T14:36:57;2.80;99.90
12384;DHT22;6256;63.808;20.336;2024-03-08T14:39:24;2.70;99.90
12384;DHT22;6256;63.808;20.336;2024-03-08T14:41:52;2.60;99.90
12384;DHT22;6256;63.808;20.336;2024-03-08T14:44:20;2.60;99.90
12384;DHT22;6256;63.808;20.336;2024-03-08T14:46:46;2.60;99.90
12384;DHT22;6256;63.808;20.336;2024-03-08T14:49:12;2.60;99.90
12384;DHT22;6256;63.808;20.336;2024-03-08T14:51:39;2.70;99.90
12384;DHT22;6256;63.808;20.336;2024-03-08T14:54:04;2.70;99.90
12384;DHT22;6256;63.808;20.336;2024-03-08T14:56:32;2.70;99.90
12384;DHT22;6256;63.808;20.336;2024-03-08T14:58:58;2.70;99.90
12384;DHT22;6256;63.808;20.336;2024-03-08T15:01:25;2.60;99.90
12384;DHT22;6256;63.808;20.336;2024-03-08T15:03:55;2.60;99.90
12384;DHT22;6256;63.808;20.336;2024-03-08T15:06:21;2.60;99.90
12384;DHT22;6256;63.808;20.336;2024-03-08T15:08:47;2.40;99.90
12384;DHT22;6256;63.808;20.336;2024-03-08T15:11:13;2.20;99.90
12384;DHT22;6256;63.808;20.336;2024-03-08T15:13:47;2.20;99.90
12384;DHT22;6256;63.808;20.336;2024-03-08T15:16:16;2.10;99.90
12384;DHT22;6256;63.808;20.336;2024-03-08T15:18:44;2.10;99.90
12384;DHT22;6256;63.808;20.336;2024-03-08T15:21:13;2.10;99.90
12384;DHT22;6256;63.808;20.336;2024-03-08T15:23:44;2.10;99.90
12384;DHT22;6256;63.808;20.336;2024-03-08T15:26:15;2.00;99.90
12384;DHT22;6256;63.808;20.336;2024-03-08T15:28:42;2.00;99.90
12384;DHT22;6256;63.808;20.336;2024-03-08T15:31:10;2.00;99.90
12384;DHT22;6256;63.808;20.336;2024-03-08T15:33:38;1.90;99.90
12384;DHT22;6256;63.808;20.336;2024-03-08T15:36:11;1.90;99.90
12384;DHT22;6256;63.808;20.336;2024-03-08T15:38:39;1.80;99.90
12384;DHT22;6256;63.808;20.336;2024-03-08T15:41:05;1.80;99.90
12384;DHT22;6256;63.808;20.336;2024-03-08T15:43:41;1.70;99.90
12384;DHT22;6256;63.808;20.336;2024-03-08T15:46:08;1.70;99.90
12384;DHT22;6256;63.808;20.336;2024-03-08T15:48:34;1.70;99.90
12384;DHT22;6256;63.808;20.336;2024-03-08T15:51:01;1.60;99.90
12384;DHT22;6256;63.808;20.336;2024-03-08T15:53:37;1.60;99.90
12384;DHT22;6256;63.808;20.336;2024-03-08T15:56:04;1.60;99.90
12384;DHT22;6256;63.808;20.336;2024-03-08T15:58:37;1.50;99.90
12384;DHT22;6256;63.808;20.336;2024-03-08T16:01:06;1.50;99.90
12384;DHT22;6256;63.808;20.336;2024-03-08T16:03:32;1.40;99.90
12384;DHT22;6256;63.808;20.336;2024-03-08T16:05:58;1.40;99.90